Time;durP1;ratioP1;P1;durP2;ratioP2;P2;SDS_P1;SDS_P2;PMS_P1;PMS_P2;Temp;Humidity;BMP_temperature;BMP_pressure;BME280_temperature;BME280_humidity;BME280_pressure;Samples;Min_cycle;Max_cycle;Signal;HPM_P1;HPM_P2
2022/11/23 00:00:29;;;;;;;;;;;3.00;98.50;;;;;;5048783;28;1886;-86
2022/11/23 00:02:57;;;;;;;;;;;3.00;98.30;;;;;;5040076;28;997;-85
2022/11/23 00:05:25;;;;;;;;;;;3.20;98.40;;;;;;5039788;28;1475;-88
2022/11/23 00:07:53;;;;;;;;;;;3.20;98.70;;;;;;5039197;28;1486;-85
2022/11/23 00:10:22;;;;;;;;;;;3.30;98.30;;;;;;5043535;28;969;-86
2022/11/23 00:12:50;;;;;;;;;;;3.10;98.50;;;;;;5045541;28;1052;-86
2022/11/23 00:15:18;;;;;;;;;;;3.20;98.20;;;;;;5050436;28;976;-86
2022/11/23 00:17:47;;;;;;;;;;;3.10;98.10;;;;;;5052654;28;1581;-86
2022/11/23 00:20:14;;;;;;;;;;;3.10;98.30;;;;;;5038804;28;1983;-85
2022/11/23 00:22:42;;;;;;;;;;;3.30;98.10;;;;;;5039267;28;1695;-86
2022/11/23 00:25:10;;;;;;;;;;;2.90;98.00;;;;;;5039220;28;1061;-84
2022/11/23 00:27:39;;;;;;;;;;;3.10;98.20;;;;;;5040908;28;1508;-86
2022/11/23 00:30:07;;;;;;;;;;;3.20;98.30;;;;;;5054225;28;1393;-85
2022/11/23 00:32:35;;;;;;;;;;;3.10;98.10;;;;;;5049167;28;1169;-85
2022/11/23 00:35:03;;;;;;;;;;;3.10;98.10;;;;;;5043372;28;1376;-86
2022/11/23 00:37:30;;;;;;;;;;;3.30;98.10;;;;;;5051273;28;1070;-85
2022/11/23 00:39:58;;;;;;;;;;;3.30;98.10;;;;;;5055774;28;1894;-84
2022/11/23 00:42:25;;;;;;;;;;;3.50;98.10;;;;;;5065414;28;1202;-84
2022/11/23 00:44:54;;;;;;;;;;;3.30;97.80;;;;;;5065350;28;1100;-83
2022/11/23 00:47:22;;;;;;;;;;;3.50;97.90;;;;;;5065383;28;1393;-83
2022/11/23 00:49:50;;;;;;;;;;;3.30;97.40;;;;;;5059156;28;1387;-84
2022/11/23 00:52:20;;;;;;;;;;;3.40;97.50;;;;;;5049903;28;1899;-86
2022/11/23 00:54:47;;;;;;;;;;;3.40;97.60;;;;;;5051039;28;1024;-89
2022/11/23 00:57:15;;;;;;;;;;;3.30;97.20;;;;;;5049813;28;981;-86
2022/11/23 00:59:43;;;;;;;;;;;3.30;97.60;;;;;;5058397;28;1887;-86
2022/11/23 01:02:12;;;;;;;;;;;3.20;97.80;;;;;;5062691;28;1095;-86
2022/11/23 01:04:39;;;;;;;;;;;3.30;98.00;;;;;;5052764;28;1157;-86
2022/11/23 01:07:07;;;;;;;;;;;3.00;97.20;;;;;;5045636;28;1777;-85
2022/11/23 01:09:35;;;;;;;;;;;3.70;97.50;;;;;;5048371;28;1583;-86
2022/11/23 01:12:02;;;;;;;;;;;3.50;97.60;;;;;;5048888;28;1703;-86
2022/11/23 01:14:30;;;;;;;;;;;3.50;97.40;;;;;;5052034;28;1519;-86
2022/11/23 01:16:58;;;;;;;;;;;3.70;97.40;;;;;;5046750;28;1053;-86
2022/11/23 01:19:27;;;;;;;;;;;3.60;97.30;;;;;;5039183;28;1260;-86
2022/11/23 01:21:54;;;;;;;;;;;3.70;97.50;;;;;;5038951;28;1005;-86
2022/11/23 01:24:23;;;;;;;;;;;3.50;97.50;;;;;;5036984;28;1351;-85
2022/11/23 01:26:51;;;;;;;;;;;3.50;97.60;;;;;;5036998;28;1017;-85
2022/11/23 01:29:18;;;;;;;;;;;3.60;97.30;;;;;;5039620;28;1397;-84
2022/11/23 01:31:46;;;;;;;;;;;3.70;97.10;;;;;;5049424;28;1577;-89
2022/11/23 01:34:14;;;;;;;;;;;3.50;97.50;;;;;;5038970;28;1628;-87
2022/11/23 01:36:44;;;;;;;;;;;3.30;97.70;;;;;;5054883;28;1033;-87
2022/11/23 01:39:12;;;;;;;;;;;3.40;97.60;;;;;;5052494;28;1281;-86
2022/11/23 01:41:41;;;;;;;;;;;3.30;98.00;;;;;;5050359;28;1878;-86
2022/11/23 01:44:26;;;;;;;;;;;3.50;98.10;;;;;;5047357;28;1025;-85
2022/11/23 01:46:54;;;;;;;;;;;3.60;97.70;;;;;;5039005;28;1662;-86
2022/11/23 01:49:22;;;;;;;;;;;3.70;97.70;;;;;;5044418;28;1375;-86
2022/11/23 01:51:52;;;;;;;;;;;3.90;97.30;;;;;;5038814;28;1109;-86
2022/11/23 01:54:22;;;;;;;;;;;3.70;97.40;;;;;;5053004;28;1166;-85
2022/11/23 01:56:58;;;;;;;;;;;3.60;97.40;;;;;;5041105;28;1520;-84
2022/11/23 01:59:26;;;;;;;;;;;3.70;97.40;;;;;;5046800;28;1523;-86
2022/11/23 02:01:54;;;;;;;;;;;3.70;97.40;;;;;;5051242;28;2040;-85
2022/11/23 02:04:23;;;;;;;;;;;3.60;97.00;;;;;;5052581;28;1061;-85
2022/11/23 02:06:52;;;;;;;;;;;3.60;97.30;;;;;;5051479;28;1642;-84
2022/11/23 02:09:21;;;;;;;;;;;3.60;97.20;;;;;;5049104;28;1414;-85
2022/11/23 02:11:49;;;;;;;;;;;3.80;97.70;;;;;;5038655;28;1085;-86
2022/11/23 02:20:27;;;;;;;;;;;3.70;97.20;;;;;;5062984;28;1993;-84
2022/11/23 02:23:04;;;;;;;;;;;3.90;97.00;;;;;;5057501;28;1492;-85
2022/11/23 02:25:34;;;;;;;;;;;3.80;97.40;;;;;;5052525;28;1072;-86
2022/11/23 02:28:04;;;;;;;;;;;3.70;97.50;;;;;;5051579;28;1408;-86
2022/11/23 02:30:31;;;;;;;;;;;3.80;97.40;;;;;;5057314;28;1363;-87
2022/11/23 02:32:59;;;;;;;;;;;3.80;97.30;;;;;;5042371;28;1635;-85
2022/11/23 02:35:27;;;;;;;;;;;3.80;97.30;;;;;;5044480;28;1111;-85
2022/11/23 02:37:54;;;;;;;;;;;3.80;97.50;;;;;;5069442;28;1265;-86
2022/11/23 02:40:26;;;;;;;;;;;3.90;97.20;;;;;;5069208;28;1918;-86
2022/11/23 02:42:53;;;;;;;;;;;3.90;97.70;;;;;;5042712;28;1013;-85
2022/11/23 02:45:27;;;;;;;;;;;3.90;97.40;;;;;;5043201;28;1117;-85
2022/11/23 02:47:55;;;;;;;;;;;3.90;97.50;;;;;;5051391;28;1500;-85
2022/11/23 02:50:23;;;;;;;;;;;4.00;97.10;;;;;;5055725;28;1623;-85
2022/11/23 02:52:50;;;;;;;;;;;4.00;97.20;;;;;;5054617;28;1084;-85
2022/11/23 02:55:18;;;;;;;;;;;4.00;97.20;;;;;;5053182;28;1073;-84
2022/11/23 02:57:46;;;;;;;;;;;4.10;97.00;;;;;;5042597;28;1100;-85
2022/11/23 03:00:14;;;;;;;;;;;4.10;97.20;;;;;;5042152;28;1495;-85
2022/11/23 03:02:43;;;;;;;;;;;4.10;97.30;;;;;;5042243;28;1965;-85
2022/11/23 03:05:10;;;;;;;;;;;4.10;97.00;;;;;;5049775;28;1084;-85
2022/11/23 03:07:38;;;;;;;;;;;4.10;97.00;;;;;;5054782;28;1238;-85
2022/11/23 03:10:06;;;;;;;;;;;4.10;97.00;;;;;;5058867;28;1542;-85
2022/11/23 03:12:34;;;;;;;;;;;4.10;97.30;;;;;;5050905;28;988;-85
2022/11/23 03:15:02;;;;;;;;;;;4.10;96.80;;;;;;5049992;28;985;-84
2022/11/23 03:17:30;;;;;;;;;;;4.10;97.00;;;;;;5047150;28;1379;-84
2022/11/23 03:19:59;;;;;;;;;;;4.20;97.40;;;;;;5051358;28;1297;-87
2022/11/23 03:22:26;;;;;;;;;;;4.20;97.00;;;;;;5055839;28;1894;-85
2022/11/23 03:24:55;;;;;;;;;;;4.20;97.10;;;;;;5043759;28;1032;-86
2022/11/23 03:27:22;;;;;;;;;;;4.40;97.10;;;;;;5046151;28;1001;-84
2022/11/23 03:29:50;;;;;;;;;;;4.10;97.40;;;;;;5045247;28;1344;-84
2022/11/23 03:32:18;;;;;;;;;;;4.20;97.40;;;;;;5052538;28;997;-85
2022/11/23 03:34:45;;;;;;;;;;;4.10;97.00;;;;;;5047655;28;958;-84
2022/11/23 03:37:14;;;;;;;;;;;4.00;97.00;;;;;;5041087;28;1080;-84
2022/11/23 03:39:42;;;;;;;;;;;4.30;97.70;;;;;;5044002;28;1341;-85
2022/11/23 03:42:14;;;;;;;;;;;4.20;97.40;;;;;;5056071;28;1882;-85
2022/11/23 03:44:41;;;;;;;;;;;4.10;97.20;;;;;;5059263;28;1055;-85
2022/11/23 03:47:09;;;;;;;;;;;4.20;97.40;;;;;;5071982;28;1142;-84
2022/11/23 03:49:37;;;;;;;;;;;4.20;96.90;;;;;;5059830;28;1744;-86
2022/11/23 03:52:05;;;;;;;;;;;4.20;97.10;;;;;;5063404;28;1601;-87
2022/11/23 03:54:34;;;;;;;;;;;4.20;97.00;;;;;;5056161;28;1537;-86
2022/11/23 03:57:01;;;;;;;;;;;4.20;97.30;;;;;;5050198;28;1040;-86
2022/11/23 03:59:29;;;;;;;;;;;4.20;97.00;;;;;;5056963;28;1370;-85
2022/11/23 04:01:57;;;;;;;;;;;4.10;97.00;;;;;;5062680;28;1887;-85
2022/11/23 04:04:25;;;;;;;;;;;4.20;97.10;;;;;;5060139;28;1029;-88
2022/11/23 04:06:52;;;;;;;;;;;4.30;97.20;;;;;;5045502;28;1693;-85
2022/11/23 04:09:20;;;;;;;;;;;4.20;97.00;;;;;;5047772;28;1041;-89
2022/11/23 04:11:49;;;;;;;;;;;4.10;96.90;;;;;;5050999;28;1040;-90
2022/11/23 04:14:17;;;;;;;;;;;4.20;97.30;;;;;;5052995;28;1036;-86
2022/11/23 04:16:45;;;;;;;;;;;4.30;96.70;;;;;;5055340;28;1344;-88
2022/11/23 04:19:12;;;;;;;;;;;4.30;96.90;;;;;;5053786;28;1515;-86
2022/11/23 04:21:40;;;;;;;;;;;4.40;96.80;;;;;;5053489;28;1946;-88
2022/11/23 04:24:08;;;;;;;;;;;4.40;96.50;;;;;;5055681;28;1037;-87
2022/11/23 04:26:35;;;;;;;;;;;4.40;96.90;;;;;;5057350;28;1520;-91
2022/11/23 04:29:05;;;;;;;;;;;4.40;97.00;;;;;;5056254;28;993;-89
2022/11/23 04:31:32;;;;;;;;;;;4.30;97.00;;;;;;5054267;28;1280;-88
2022/11/23 04:34:00;;;;;;;;;;;4.30;96.70;;;;;;5044405;28;1631;-88
2022/11/23 04:36:28;;;;;;;;;;;4.30;97.20;;;;;;5044084;28;1520;-88
2022/11/23 04:38:55;;;;;;;;;;;4.10;97.40;;;;;;5058015;28;1196;-86
2022/11/23 04:41:23;;;;;;;;;;;4.20;97.40;;;;;;5048895;28;1906;-87
2022/11/23 04:43:51;;;;;;;;;;;4.20;97.50;;;;;;5049583;28;985;-87
2022/11/23 04:46:20;;;;;;;;;;;4.20;97.10;;;;;;5052882;28;1816;-86
2022/11/23 04:48:48;;;;;;;;;;;4.20;97.40;;;;;;5046669;28;1352;-86
2022/11/23 04:51:16;;;;;;;;;;;4.40;97.40;;;;;;5054517;28;1431;-84
2022/11/23 04:53:43;;;;;;;;;;;4.30;97.30;;;;;;5072805;28;1084;-86
2022/11/23 04:56:11;;;;;;;;;;;4.40;97.00;;;;;;5052084;28;1005;-86
2022/11/23 04:58:39;;;;;;;;;;;4.40;97.20;;;;;;5044165;28;1042;-84
2022/11/23 05:01:06;;;;;;;;;;;4.50;96.70;;;;;;5051727;28;1453;-85
2022/11/23 05:03:35;;;;;;;;;;;4.60;97.20;;;;;;5046717;28;1898;-86
2022/11/23 05:06:04;;;;;;;;;;;4.60;97.30;;;;;;5045042;28;1454;-84
2022/11/23 05:08:31;;;;;;;;;;;4.60;97.20;;;;;;5048175;28;1170;-84
2022/11/23 05:10:59;;;;;;;;;;;4.60;97.00;;;;;;5044430;28;1293;-85
2022/11/23 05:13:27;;;;;;;;;;;4.70;97.00;;;;;;5052810;28;1136;-84
2022/11/23 05:15:54;;;;;;;;;;;4.70;97.00;;;;;;5051193;28;1592;-85
2022/11/23 05:18:22;;;;;;;;;;;4.60;96.60;;;;;;5037282;28;1373;-85
2022/11/23 05:20:51;;;;;;;;;;;4.70;96.40;;;;;;5036778;28;1500;-85
2022/11/23 05:23:23;;;;;;;;;;;4.70;96.90;;;;;;5039271;28;1894;-83
2022/11/23 05:25:50;;;;;;;;;;;4.70;96.70;;;;;;5049707;28;1069;-84
2022/11/23 05:28:19;;;;;;;;;;;4.70;96.60;;;;;;5047436;28;1388;-85
2022/11/23 05:31:07;;;;;;;;;;;4.80;97.00;;;;;;5044013;28;1696;-84
2022/11/23 05:33:34;;;;;;;;;;;4.70;96.80;;;;;;5043483;28;1481;-84
2022/11/23 05:36:05;;;;;;;;;;;4.70;97.10;;;;;;5050252;28;1511;-84
2022/11/23 05:38:32;;;;;;;;;;;4.70;97.60;;;;;;5035985;28;998;-86
2022/11/23 05:41:00;;;;;;;;;;;4.70;98.00;;;;;;5038138;28;1225;-86
2022/11/23 05:43:28;;;;;;;;;;;4.60;98.40;;;;;;5043985;28;1886;-86
2022/11/23 05:45:58;;;;;;;;;;;4.70;98.70;;;;;;5052110;28;1267;-86
2022/11/23 05:48:25;;;;;;;;;;;4.70;99.20;;;;;;5039636;28;1041;-86
2022/11/23 05:50:53;;;;;;;;;;;4.80;98.70;;;;;;5052718;28;1316;-84
2022/11/23 05:53:22;;;;;;;;;;;4.70;99.00;;;;;;5053208;28;1064;-84
2022/11/23 05:55:50;;;;;;;;;;;4.70;99.20;;;;;;5059515;28;1080;-84
2022/11/23 05:58:18;;;;;;;;;;;4.90;99.30;;;;;;5050603;28;1144;-86
2022/11/23 06:00:45;;;;;;;;;;;4.70;99.40;;;;;;5059318;28;1357;-84
2022/11/23 06:03:13;;;;;;;;;;;4.80;98.90;;;;;;5049240;28;1953;-84
2022/11/23 06:05:41;;;;;;;;;;;4.70;99.20;;;;;;5039810;28;1033;-83
2022/11/23 06:08:08;;;;;;;;;;;4.70;99.30;;;;;;5040315;28;962;-85
2022/11/23 06:10:37;;;;;;;;;;;4.70;99.30;;;;;;5048218;28;1304;-83
2022/11/23 06:13:09;;;;;;;;;;;4.80;99.60;;;;;;5046898;28;1028;-85
2022/11/23 06:15:37;;;;;;;;;;;4.90;99.50;;;;;;5046933;28;1559;-87
2022/11/23 06:18:06;;;;;;;;;;;4.60;99.20;;;;;;5050242;28;1032;-85
2022/11/23 06:20:34;;;;;;;;;;;4.60;99.90;;;;;;5049329;28;1359;-84
2022/11/23 06:23:01;;;;;;;;;;;4.60;98.80;;;;;;5051377;28;1971;-85
2022/11/23 06:25:29;;;;;;;;;;;4.60;98.80;;;;;;5049739;28;1711;-85
2022/11/23 06:27:59;;;;;;;;;;;4.60;99.00;;;;;;5037019;28;1647;-84
2022/11/23 06:30:36;;;;;;;;;;;4.60;99.60;;;;;;5046673;28;1371;-83
2022/11/23 06:33:07;;;;;;;;;;;4.60;98.90;;;;;;5038421;28;974;-85
2022/11/23 06:35:42;;;;;;;;;;;4.60;99.20;;;;;;5038728;28;1531;-84
2022/11/23 06:38:10;;;;;;;;;;;4.60;99.40;;;;;;5038582;28;1435;-84
2022/11/23 06:40:37;;;;;;;;;;;4.60;99.90;;;;;;5048001;28;1641;-83
2022/11/23 06:43:07;;;;;;;;;;;4.80;99.90;;;;;;5046191;28;1906;-85
2022/11/23 06:45:35;;;;;;;;;;;4.80;99.90;;;;;;5050930;28;1357;-83
2022/11/23 06:48:03;;;;;;;;;;;5.00;99.90;;;;;;5054482;28;1085;-85
2022/11/23 06:50:30;;;;;;;;;;;4.80;99.90;;;;;;5045241;28;1509;-85
2022/11/23 06:53:02;;;;;;;;;;;4.90;99.90;;;;;;5039922;28;1707;-85
2022/11/23 06:55:30;;;;;;;;;;;5.00;99.90;;;;;;5037959;28;1929;-86
2022/11/23 06:57:58;;;;;;;;;;;5.20;99.80;;;;;;5038908;28;1641;-85
2022/11/23 07:00:27;;;;;;;;;;;4.90;99.70;;;;;;5049612;28;1463;-84
2022/11/23 07:02:55;;;;;;;;;;;5.10;99.90;;;;;;5039548;28;1906;-84
2022/11/23 07:05:23;;;;;;;;;;;4.90;99.70;;;;;;5043164;28;1081;-84
2022/11/23 07:07:51;;;;;;;;;;;4.80;99.60;;;;;;5050893;28;1116;-84
2022/11/23 07:10:19;;;;;;;;;;;4.80;99.00;;;;;;5058577;28;1480;-87
2022/11/23 07:12:47;;;;;;;;;;;5.10;99.00;;;;;;5040884;28;1392;-86
2022/11/23 07:15:15;;;;;;;;;;;5.00;99.30;;;;;;5040165;28;1641;-85
2022/11/23 07:17:44;;;;;;;;;;;5.10;99.50;;;;;;5044486;28;1068;-85
2022/11/23 07:20:12;;;;;;;;;;;5.00;99.70;;;;;;5048099;28;1483;-85
2022/11/23 07:22:41;;;;;;;;;;;5.10;99.60;;;;;;5055502;28;1910;-86
2022/11/23 07:25:10;;;;;;;;;;;5.20;99.90;;;;;;5051984;28;1009;-86
2022/11/23 07:27:37;;;;;;;;;;;5.20;99.20;;;;;;5051454;28;1399;-85
2022/11/23 07:30:06;;;;;;;;;;;5.20;99.30;;;;;;5047148;28;1284;-85
2022/11/23 07:32:33;;;;;;;;;;;5.20;99.80;;;;;;5039744;28;1060;-83
2022/11/23 07:35:02;;;;;;;;;;;5.20;99.70;;;;;;5040857;28;1155;-84
2022/11/23 07:37:30;;;;;;;;;;;5.20;99.80;;;;;;5055472;28;1413;-84
2022/11/23 07:39:58;;;;;;;;;;;5.20;99.50;;;;;;5047568;28;1348;-85
2022/11/23 07:42:26;;;;;;;;;;;5.20;99.60;;;;;;5053465;28;1372;-85
2022/11/23 07:45:11;;;;;;;;;;;5.40;99.50;;;;;;5041359;28;1969;-85
2022/11/23 07:47:39;;;;;;;;;;;5.30;99.60;;;;;;5046164;28;1174;-85
2022/11/23 07:50:09;;;;;;;;;;;5.30;99.50;;;;;;5045556;28;1609;-91
2022/11/23 07:52:37;;;;;;;;;;;5.30;99.60;;;;;;5038925;28;1125;-85
2022/11/23 07:55:05;;;;;;;;;;;5.30;99.90;;;;;;5037936;28;1064;-85
2022/11/23 07:57:33;;;;;;;;;;;5.20;99.80;;;;;;5041715;28;1848;-84
2022/11/23 08:00:01;;;;;;;;;;;5.30;99.50;;;;;;5044543;28;1287;-86
2022/11/23 08:02:28;;;;;;;;;;;5.30;99.80;;;;;;5052243;28;1166;-86
2022/11/23 08:04:56;;;;;;;;;;;5.30;99.70;;;;;;5052044;28;1910;-86
2022/11/23 08:07:26;;;;;;;;;;;5.40;99.60;;;;;;5050856;28;1106;-85
2022/11/23 08:09:54;;;;;;;;;;;5.40;99.80;;;;;;5048746;28;1353;-87
2022/11/23 08:12:22;;;;;;;;;;;5.50;99.50;;;;;;5040753;28;1017;-87
2022/11/23 08:14:49;;;;;;;;;;;5.50;99.50;;;;;;5049592;28;1040;-85
2022/11/23 08:17:17;;;;;;;;;;;5.60;99.40;;;;;;5057080;28;1025;-86
2022/11/23 08:19:45;;;;;;;;;;;5.60;99.30;;;;;;5046716;28;1307;-86
2022/11/23 08:22:12;;;;;;;;;;;5.70;99.20;;;;;;5041455;28;997;-85
2022/11/23 08:24:44;;;;;;;;;;;5.60;99.00;;;;;;5051904;28;1910;-86
2022/11/23 08:27:11;;;;;;;;;;;5.80;99.60;;;;;;5056478;28;1674;-86
2022/11/23 08:29:39;;;;;;;;;;;5.70;99.20;;;;;;5050616;28;1347;-87
2022/11/23 08:32:07;;;;;;;;;;;5.70;99.10;;;;;;5052486;28;1814;-87
2022/11/23 08:34:34;;;;;;;;;;;5.80;99.30;;;;;;5046721;28;1063;-85
2022/11/23 08:37:02;;;;;;;;;;;5.70;99.50;;;;;;5049517;28;1071;-86
2022/11/23 08:39:30;;;;;;;;;;;5.70;99.40;;;;;;5047607;28;1528;-84
2022/11/23 08:41:59;;;;;;;;;;;5.80;99.40;;;;;;5048152;28;1305;-84
2022/11/23 08:44:27;;;;;;;;;;;6.10;99.60;;;;;;5039214;28;1902;-85
2022/11/23 08:46:54;;;;;;;;;;;5.90;98.80;;;;;;5038854;28;1026;-84
2022/11/23 08:49:22;;;;;;;;;;;6.20;99.00;;;;;;5048106;28;965;-85
2022/11/23 08:51:50;;;;;;;;;;;5.90;98.80;;;;;;5049560;28;1489;-84
2022/11/23 08:54:17;;;;;;;;;;;6.00;98.70;;;;;;5050495;28;1465;-87
2022/11/23 08:56:48;;;;;;;;;;;6.30;99.20;;;;;;5045357;28;1020;-86
2022/11/23 08:59:17;;;;;;;;;;;6.10;99.10;;;;;;5050142;28;1040;-85
2022/11/23 09:01:45;;;;;;;;;;;6.20;99.00;;;;;;5038152;28;1530;-86
2022/11/23 09:04:13;;;;;;;;;;;6.20;98.80;;;;;;5037703;28;1906;-87
2022/11/23 09:06:47;;;;;;;;;;;6.50;98.90;;;;;;5038264;28;994;-87
2022/11/23 09:09:15;;;;;;;;;;;6.40;98.60;;;;;;5039466;28;1065;-87
2022/11/23 09:11:42;;;;;;;;;;;6.30;98.50;;;;;;5050086;28;1501;-85
2022/11/23 09:14:10;;;;;;;;;;;6.30;98.40;;;;;;5049159;28;1853;-87
2022/11/23 09:16:41;;;;;;;;;;;6.30;98.00;;;;;;5057677;28;1208;-83
2022/11/23 09:19:11;;;;;;;;;;;6.50;98.30;;;;;;5061680;28;1171;-86
2022/11/23 09:21:41;;;;;;;;;;;6.50;98.60;;;;;;5058940;28;1170;-85
2022/11/23 09:24:09;;;;;;;;;;;6.50;98.20;;;;;;5049453;28;1967;-82
2022/11/23 09:26:38;;;;;;;;;;;6.60;98.60;;;;;;5061818;28;1718;-85
2022/11/23 09:29:06;;;;;;;;;;;6.70;98.00;;;;;;5051740;28;1833;-84
2022/11/23 09:31:35;;;;;;;;;;;6.70;97.80;;;;;;5052341;28;1367;-83
2022/11/23 09:34:05;;;;;;;;;;;6.70;97.70;;;;;;5063203;28;1406;-85
2022/11/23 09:36:33;;;;;;;;;;;6.70;98.00;;;;;;5057711;28;1511;-83
2022/11/23 09:39:00;;;;;;;;;;;6.90;97.80;;;;;;5051430;28;1809;-84
2022/11/23 09:41:42;;;;;;;;;;;6.80;97.90;;;;;;5061444;28;1764;-85
2022/11/23 09:44:15;;;;;;;;;;;6.80;97.70;;;;;;5062310;28;1981;-85
2022/11/23 09:46:48;;;;;;;;;;;6.80;98.20;;;;;;5051388;28;1547;-84
2022/11/23 09:49:18;;;;;;;;;;;6.90;98.10;;;;;;5050047;28;1093;-84
2022/11/23 09:51:49;;;;;;;;;;;6.90;98.00;;;;;;5037664;28;1299;-84
2022/11/23 09:54:26;;;;;;;;;;;6.90;97.80;;;;;;5047427;28;1039;-87
2022/11/23 09:57:02;;;;;;;;;;;7.00;98.00;;;;;;5049404;28;1319;-85
2022/11/23 09:59:36;;;;;;;;;;;7.00;97.90;;;;;;5053301;28;1726;-83
2022/11/23 10:02:03;;;;;;;;;;;7.10;97.70;;;;;;5058747;28;1180;-86
2022/11/23 10:04:34;;;;;;;;;;;7.10;97.40;;;;;;5048941;28;1894;-84
2022/11/23 10:07:22;;;;;;;;;;;7.10;97.70;;;;;;5059192;28;1891;-84
2022/11/23 10:09:54;;;;;;;;;;;7.20;97.50;;;;;;5059749;28;1634;-85
2022/11/23 10:12:29;;;;;;;;;;;7.30;97.10;;;;;;5059227;28;764;-85
2022/11/23 10:15:02;;;;;;;;;;;7.30;97.40;;;;;;5049242;28;1382;-88
2022/11/23 10:17:47;;;;;;;;;;;7.50;97.50;;;;;;5054231;28;1320;-88
2022/11/23 10:20:28;;;;;;;;;;;7.50;97.50;;;;;;5059389;28;1347;-86
2022/11/23 10:22:57;;;;;;;;;;;7.60;97.20;;;;;;5041250;28;1077;-85
2022/11/23 10:25:26;;;;;;;;;;;7.60;96.90;;;;;;5060599;28;1906;-86
2022/11/23 10:27:56;;;;;;;;;;;7.50;96.60;;;;;;5043624;28;4647;-83
2022/11/23 10:30:24;;;;;;;;;;;7.60;96.70;;;;;;5059704;28;1868;-85
2022/11/23 10:32:55;;;;;;;;;;;7.80;96.40;;;;;;5054412;28;1096;-84
2022/11/23 10:35:28;;;;;;;;;;;7.90;96.70;;;;;;5055240;28;1049;-84
2022/11/23 10:38:00;;;;;;;;;;;7.70;97.00;;;;;;5065740;28;1647;-84
2022/11/23 10:40:29;;;;;;;;;;;7.80;96.20;;;;;;5061746;28;1315;-84
2022/11/23 10:42:59;;;;;;;;;;;7.80;96.60;;;;;;5058022;28;1534;-85
2022/11/23 10:45:28;;;;;;;;;;;7.90;96.30;;;;;;5050734;28;1914;-85
2022/11/23 10:47:57;;;;;;;;;;;8.00;96.10;;;;;;5056323;28;1107;-85
2022/11/23 10:50:28;;;;;;;;;;;8.10;96.30;;;;;;5050928;28;1288;-85
2022/11/23 10:52:57;;;;;;;;;;;8.20;96.00;;;;;;5055373;28;1389;-84
2022/11/23 10:55:27;;;;;;;;;;;8.20;96.00;;;;;;5053031;28;1103;-84
2022/11/23 10:57:55;;;;;;;;;;;8.30;96.30;;;;;;5048761;28;1230;-85
2022/11/23 11:00:24;;;;;;;;;;;8.20;95.90;;;;;;5045166;28;1368;-85
2022/11/23 11:02:58;;;;;;;;;;;8.00;95.70;;;;;;5051126;28;1336;-86
2022/11/23 11:05:31;;;;;;;;;;;8.20;96.10;;;;;;5048613;28;2004;-85
2022/11/23 11:08:20;;;;;;;;;;;8.20;95.80;;;;;;5050593;28;1605;-84
2022/11/23 11:10:49;;;;;;;;;;;8.30;95.80;;;;;;5041023;28;1452;-85
2022/11/23 11:13:24;;;;;;;;;;;8.20;95.70;;;;;;5051224;28;1637;-85
2022/11/23 11:15:53;;;;;;;;;;;8.30;95.90;;;;;;5053628;28;1458;-85
2022/11/23 11:18:21;;;;;;;;;;;8.30;96.20;;;;;;5059131;28;1068;-86
2022/11/23 11:20:55;;;;;;;;;;;8.20;95.20;;;;;;5043810;28;1539;-86
2022/11/23 11:23:24;;;;;;;;;;;8.20;95.80;;;;;;5054307;28;1284;-87
2022/11/23 11:26:02;;;;;;;;;;;8.30;95.60;;;;;;5052254;28;1938;-86
2022/11/23 11:28:33;;;;;;;;;;;8.40;95.70;;;;;;5055531;28;1396;-86
2022/11/23 11:31:06;;;;;;;;;;;8.40;95.70;;;;;;5054882;28;1430;-86
2022/11/23 11:33:39;;;;;;;;;;;8.50;95.80;;;;;;5050936;28;1575;-86
2022/11/23 11:36:08;;;;;;;;;;;8.60;95.90;;;;;;5056305;28;1678;-84
2022/11/23 11:38:37;;;;;;;;;;;8.40;95.80;;;;;;5057691;28;1242;-85
2022/11/23 11:41:07;;;;;;;;;;;8.40;95.50;;;;;;5063801;28;1455;-86
2022/11/23 11:43:38;;;;;;;;;;;8.30;96.10;;;;;;5053902;28;1175;-86
2022/11/23 11:46:12;;;;;;;;;;;8.40;96.30;;;;;;5052677;28;1874;-85
2022/11/23 11:48:58;;;;;;;;;;;8.40;96.30;;;;;;5053163;28;1693;-84
2022/11/23 11:51:30;;;;;;;;;;;8.40;96.00;;;;;;5056211;28;1464;-86
2022/11/23 11:54:03;;;;;;;;;;;8.40;96.30;;;;;;5043117;28;1249;-85
2022/11/23 11:56:32;;;;;;;;;;;8.60;96.40;;;;;;5047516;28;1025;-87
2022/11/23 11:59:04;;;;;;;;;;;8.60;96.10;;;;;;5057242;28;1069;-85
2022/11/23 12:01:33;;;;;;;;;;;8.50;96.50;;;;;;5050602;28;1489;-86
2022/11/23 12:04:04;;;;;;;;;;;8.50;96.10;;;;;;5053983;28;1104;-88
2022/11/23 12:06:35;;;;;;;;;;;8.50;95.90;;;;;;5057199;28;1910;-86
2022/11/23 12:09:09;;;;;;;;;;;8.60;96.50;;;;;;5052458;28;1605;-86
2022/11/23 12:11:37;;;;;;;;;;;8.70;96.50;;;;;;5059494;28;1546;-87
2022/11/23 12:14:05;;;;;;;;;;;8.80;96.30;;;;;;5057874;28;1324;-88
2022/11/23 12:16:38;;;;;;;;;;;8.80;96.90;;;;;;5062260;28;1088;-87
2022/11/23 12:19:09;;;;;;;;;;;8.60;97.60;;;;;;5053127;28;1238;-86
2022/11/23 12:21:45;;;;;;;;;;;8.90;97.70;;;;;;5053462;28;1359;-86
2022/11/23 12:24:22;;;;;;;;;;;8.80;98.00;;;;;;5044786;28;1021;-86
2022/11/23 12:26:53;;;;;;;;;;;8.60;97.80;;;;;;5057439;28;1898;-87
2022/11/23 12:29:31;;;;;;;;;;;8.60;97.70;;;;;;5060781;28;1535;-86
2022/11/23 12:32:05;;;;;;;;;;;8.40;97.50;;;;;;5056339;28;1001;-87
2022/11/23 12:34:39;;;;;;;;;;;8.30;97.50;;;;;;5050021;28;1341;-86
2022/11/23 12:37:17;;;;;;;;;;;8.50;97.80;;;;;;5055657;28;1412;-86
2022/11/23 12:39:54;;;;;;;;;;;8.20;97.90;;;;;;5049476;28;1363;-86
2022/11/23 12:42:25;;;;;;;;;;;8.10;97.70;;;;;;5042811;28;1745;-86
2022/11/23 12:47:50;;;;;;;;;;;8.40;98.10;;;;;;5031270;28;1887;-86
2022/11/23 12:50:21;;;;;;;;;;;8.60;97.40;;;;;;5051611;28;1530;-85
2022/11/23 12:52:59;;;;;;;;;;;8.90;97.70;;;;;;5057971;28;1146;-86
2022/11/23 12:55:31;;;;;;;;;;;8.70;97.60;;;;;;5047067;28;1021;-84
2022/11/23 12:58:02;;;;;;;;;;;8.70;97.40;;;;;;5051537;28;922;-86
2022/11/23 13:00:34;;;;;;;;;;;8.60;97.00;;;;;;5048306;28;1364;-85
2022/11/23 13:03:18;;;;;;;;;;;8.80;97.50;;;;;;5051665;28;1647;-85
2022/11/23 13:06:04;;;;;;;;;;;8.40;97.40;;;;;;5040151;28;1910;-86
2022/11/23 13:08:49;;;;;;;;;;;8.40;97.90;;;;;;5040474;28;1013;-86
2022/11/23 13:11:26;;;;;;;;;;;8.30;98.00;;;;;;5050549;28;1406;-86
2022/11/23 13:14:02;;;;;;;;;;;8.30;97.90;;;;;;5057396;28;1801;-87
2022/11/23 13:16:37;;;;;;;;;;;8.20;97.80;;;;;;5053241;28;1048;-86
2022/11/23 13:19:32;;;;;;;;;;;8.10;97.90;;;;;;5050969;28;1851;-88
2022/11/23 13:22:00;;;;;;;;;;;8.20;98.00;;;;;;4995844;28;1143;-85
2022/11/23 13:24:29;;;;;;;;;;;8.20;97.90;;;;;;5051326;28;1558;-87
2022/11/23 13:27:16;;;;;;;;;;;8.30;97.70;;;;;;5058192;28;1886;-86
2022/11/23 13:29:57;;;;;;;;;;;8.40;98.10;;;;;;5046926;28;1322;-86
2022/11/23 13:32:34;;;;;;;;;;;8.40;97.70;;;;;;5045440;28;1016;-86
2022/11/23 13:35:02;;;;;;;;;;;8.40;97.60;;;;;;5047919;28;1083;-86
2022/11/23 13:37:29;;;;;;;;;;;8.40;97.60;;;;;;5048841;28;1653;-88
2022/11/23 13:40:03;;;;;;;;;;;8.50;97.70;;;;;;5056950;28;1264;-86
2022/11/23 13:42:32;;;;;;;;;;;8.50;97.60;;;;;;5047010;28;1655;-87
2022/11/23 13:45:30;;;;;;;;;;;8.60;97.60;;;;;;5052647;28;1072;-87
2022/11/23 13:48:13;;;;;;;;;;;8.60;97.40;;;;;;5011900;28;1972;-86
2022/11/23 13:51:01;;;;;;;;;;;8.70;97.40;;;;;;5052331;28;1502;-86
2022/11/23 13:53:32;;;;;;;;;;;8.70;97.00;;;;;;5053581;28;1105;-85
2022/11/23 13:56:15;;;;;;;;;;;8.70;97.10;;;;;;5050407;28;981;-86
2022/11/23 13:58:50;;;;;;;;;;;8.70;97.20;;;;;;5065200;28;1402;-86
2022/11/23 14:01:32;;;;;;;;;;;8.70;97.30;;;;;;5047428;28;1579;-85
2022/11/23 14:04:19;;;;;;;;;;;8.70;97.10;;;;;;5049976;28;1639;-87
2022/11/23 14:06:50;;;;;;;;;;;8.70;97.10;;;;;;5054138;28;1906;-87
2022/11/23 14:09:21;;;;;;;;;;;8.70;96.70;;;;;;5050350;28;1277;-88
2022/11/23 14:11:52;;;;;;;;;;;8.70;96.90;;;;;;5065286;28;1625;-84
2022/11/23 14:14:23;;;;;;;;;;;8.90;97.00;;;;;;5060508;28;1036;-86
2022/11/23 14:17:05;;;;;;;;;;;8.70;97.00;;;;;;5047898;28;970;-86
2022/11/23 14:19:42;;;;;;;;;;;8.60;96.70;;;;;;5047246;28;1801;-87
2022/11/23 14:22:15;;;;;;;;;;;8.70;96.70;;;;;;5055528;28;1061;-87
2022/11/23 14:24:59;;;;;;;;;;;8.70;96.90;;;;;;5058666;28;1009;-88
2022/11/23 14:27:38;;;;;;;;;;;8.70;96.90;;;;;;5062482;28;1902;-85
2022/11/23 14:30:22;;;;;;;;;;;8.60;96.80;;;;;;5057903;28;1276;-86
2022/11/23 14:32:59;;;;;;;;;;;8.60;97.10;;;;;;5050584;28;1002;-85
2022/11/23 14:35:37;;;;;;;;;;;8.50;97.20;;;;;;5056680;28;990;-87
2022/11/23 14:38:29;;;;;;;;;;;8.50;97.00;;;;;;5058738;28;1742;-85
2022/11/23 14:41:04;;;;;;;;;;;8.50;97.10;;;;;;5044154;28;1336;-86
2022/11/23 14:43:33;;;;;;;;;;;8.50;97.20;;;;;;5058365;28;1005;-85
2022/11/23 14:46:01;;;;;;;;;;;8.30;97.10;;;;;;5054379;28;997;-87
2022/11/23 14:48:30;;;;;;;;;;;8.30;97.20;;;;;;5055167;28;1910;-86
2022/11/23 14:51:00;;;;;;;;;;;8.30;97.40;;;;;;5051931;28;1539;-86
2022/11/23 14:53:29;;;;;;;;;;;8.20;97.30;;;;;;5044730;28;1483;-88
2022/11/23 14:55:57;;;;;;;;;;;7.90;97.10;;;;;;5049331;28;1572;-89
2022/11/23 14:58:27;;;;;;;;;;;8.00;97.70;;;;;;5056357;28;977;-87
2022/11/23 15:00:58;;;;;;;;;;;7.90;97.40;;;;;;5043496;28;1530;-87
2022/11/23 15:03:30;;;;;;;;;;;7.80;97.90;;;;;;5055702;28;1567;-88
2022/11/23 15:06:23;;;;;;;;;;;7.60;97.70;;;;;;5077879;28;1188;-89
2022/11/23 15:08:53;;;;;;;;;;;7.50;97.90;;;;;;5045054;28;1878;-87
2022/11/23 15:11:23;;;;;;;;;;;7.50;98.40;;;;;;5043028;28;1533;-87